sensor_id;sensor_type;location;lat;lon;timestamp;P1;durP1;ratioP1;P2;durP2;ratioP2
24517;SDS011;12678;51.336;12.406;2023-12-14T00:01:32;19.10;;;9.02;;
24517;SDS011;12678;51.336;12.406;2023-12-14T00:03:57;14.95;;;8.88;;
24517;SDS011;12678;51.336;12.406;2023-12-14T00:06:23;18.75;;;9.02;;
24517;SDS011;12678;51.336;12.406;2023-12-14T00:08:48;20.40;;;10.00;;
24517;SDS011;12678;51.336;12.406;2023-12-14T00:11:15;20.33;;;10.52;;
24517;SDS011;12678;51.336;12.406;2023-12-14T00:13:40;23.65;;;10.73;;
24517;SDS011;12678;51.336;12.406;2023-12-14T00:16:06;22.98;;;10.57;;
24517;SDS011;12678;51.336;12.406;2023-12-14T00:18:32;24.83;;;10.95;;
24517;SDS011;12678;51.336;12.406;2023-12-14T00:20:58;24.80;;;10.88;;
24517;SDS011;12678;51.336;12.406;2023-12-14T00:23:23;29.13;;;11.20;;
24517;SDS011;12678;51.336;12.406;2023-12-14T00:25:49;25.70;;;11.38;;
24517;SDS011;12678;51.336;12.406;2023-12-14T00:28:14;30.88;;;12.98;;
24517;SDS011;12678;51.336;12.406;2023-12-14T00:30:40;29.23;;;11.23;;
24517;SDS011;12678;51.336;12.406;2023-12-14T00:33:06;26.63;;;11.35;;
24517;SDS011;12678;51.336;12.406;2023-12-14T00:35:31;29.38;;;12.00;;
24517;SDS011;12678;51.336;12.406;2023-12-14T00:37:57;27.95;;;11.93;;
24517;SDS011;12678;51.336;12.406;2023-12-14T00:40:23;26.15;;;11.50;;
24517;SDS011;12678;51.336;12.406;2023-12-14T00:42:48;26.85;;;11.88;;
24517;SDS011;12678;51.336;12.406;2023-12-14T00:45:14;31.70;;;11.88;;
24517;SDS011;12678;51.336;12.406;2023-12-14T00:47:40;26.92;;;11.52;;
24517;SDS011;12678;51.336;12.406;2023-12-14T00:50:05;39.67;;;12.05;;
24517;SDS011;12678;51.336;12.406;2023-12-14T00:52:31;26.95;;;12.05;;
24517;SDS011;12678;51.336;12.406;2023-12-14T00:54:57;31.27;;;11.38;;
24517;SDS011;12678;51.336;12.406;2023-12-14T00:57:22;24.75;;;10.98;;
24517;SDS011;12678;51.336;12.406;2023-12-14T00:59:48;29.20;;;10.77;;
24517;SDS011;12678;51.336;12.406;2023-12-14T01:02:13;31.25;;;10.88;;
24517;SDS011;12678;51.336;12.406;2023-12-14T01:04:39;29.77;;;10.23;;
24517;SDS011;12678;51.336;12.406;2023-12-14T01:07:04;22.63;;;9.98;;
24517;SDS011;12678;51.336;12.406;2023-12-14T01:09:30;34.30;;;11.60;;
24517;SDS011;12678;51.336;12.406;2023-12-14T01:11:56;29.02;;;11.10;;
24517;SDS011;12678;51.336;12.406;2023-12-14T01:14:21;25.63;;;10.60;;
24517;SDS011;12678;51.336;12.406;2023-12-14T01:16:47;28.58;;;10.90;;
24517;SDS011;12678;51.336;12.406;2023-12-14T01:19:13;29.05;;;11.77;;
24517;SDS011;12678;51.336;12.406;2023-12-14T01:21:38;25.67;;;9.48;;
24517;SDS011;12678;51.336;12.406;2023-12-14T01:24:04;25.70;;;9.43;;
24517;SDS011;12678;51.336;12.406;2023-12-14T01:26:30;29.65;;;10.23;;
24517;SDS011;12678;51.336;12.406;2023-12-14T01:28:55;30.95;;;10.70;;
24517;SDS011;12678;51.336;12.406;2023-12-14T01:31:21;22.42;;;9.82;;
24517;SDS011;12678;51.336;12.406;2023-12-14T01:33:49;25.20;;;10.85;;
24517;SDS011;12678;51.336;12.406;2023-12-14T01:36:21;20.23;;;9.43;;
24517;SDS011;12678;51.336;12.406;2023-12-14T01:38:48;24.85;;;10.20;;
24517;SDS011;12678;51.336;12.406;2023-12-14T01:41:13;20.63;;;9.55;;
24517;SDS011;12678;51.336;12.406;2023-12-14T01:43:39;24.02;;;10.48;;
24517;SDS011;12678;51.336;12.406;2023-12-14T01:46:05;25.50;;;9.90;;
24517;SDS011;12678;51.336;12.406;2023-12-14T01:48:30;24.77;;;9.82;;
24517;SDS011;12678;51.336;12.406;2023-12-14T01:50:56;24.48;;;10.25;;
24517;SDS011;12678;51.336;12.406;2023-12-14T01:53:21;25.80;;;10.40;;
24517;SDS011;12678;51.336;12.406;2023-12-14T01:55:47;24.55;;;10.27;;
24517;SDS011;12678;51.336;12.406;2023-12-14T01:58:13;24.48;;;11.25;;
24517;SDS011;12678;51.336;12.406;2023-12-14T02:00:39;23.75;;;9.82;;
24517;SDS011;12678;51.336;12.406;2023-12-14T02:03:24;26.67;;;10.88;;
24517;SDS011;12678;51.336;12.406;2023-12-14T02:05:50;23.23;;;9.65;;
24517;SDS011;12678;51.336;12.406;2023-12-14T02:08:15;30.48;;;10.20;;
24517;SDS011;12678;51.336;12.406;2023-12-14T02:10:41;31.50;;;11.23;;
24517;SDS011;12678;51.336;12.406;2023-12-14T02:13:06;31.20;;;12.77;;
24517;SDS011;12678;51.336;12.406;2023-12-14T02:15:32;30.63;;;12.07;;
24517;SDS011;12678;51.336;12.406;2023-12-14T02:17:58;32.70;;;11.98;;
24517;SDS011;12678;51.336;12.406;2023-12-14T02:20:23;28.02;;;10.57;;
24517;SDS011;12678;51.336;12.406;2023-12-14T02:22:52;29.35;;;10.82;;
24517;SDS011;12678;51.336;12.406;2023-12-14T02:25:21;25.50;;;10.77;;
24517;SDS011;12678;51.336;12.406;2023-12-14T02:27:48;29.17;;;10.35;;
24517;SDS011;12678;51.336;12.406;2023-12-14T02:30:14;24.55;;;9.98;;
24517;SDS011;12678;51.336;12.406;2023-12-14T02:32:40;30.40;;;11.75;;
24517;SDS011;12678;51.336;12.406;2023-12-14T02:35:06;32.10;;;11.07;;
24517;SDS011;12678;51.336;12.406;2023-12-14T02:37:35;31.30;;;10.38;;
24517;SDS011;12678;51.336;12.406;2023-12-14T02:40:02;28.13;;;10.10;;
24517;SDS011;12678;51.336;12.406;2023-12-14T02:42:29;29.23;;;10.57;;
24517;SDS011;12678;51.336;12.406;2023-12-14T02:44:55;25.88;;;10.10;;
24517;SDS011;12678;51.336;12.406;2023-12-14T02:47:21;22.80;;;10.13;;
24517;SDS011;12678;51.336;12.406;2023-12-14T02:49:46;29.88;;;10.10;;
24517;SDS011;12678;51.336;12.406;2023-12-14T02:52:12;24.83;;;10.00;;
24517;SDS011;12678;51.336;12.406;2023-12-14T02:54:41;23.73;;;9.18;;
24517;SDS011;12678;51.336;12.406;2023-12-14T02:57:06;29.55;;;9.88;;
24517;SDS011;12678;51.336;12.406;2023-12-14T02:59:32;28.60;;;8.95;;
24517;SDS011;12678;51.336;12.406;2023-12-14T03:01:58;28.40;;;9.15;;
24517;SDS011;12678;51.336;12.406;2023-12-14T03:04:23;24.85;;;9.10;;
24517;SDS011;12678;51.336;12.406;2023-12-14T03:06:49;24.52;;;8.82;;
24517;SDS011;12678;51.336;12.406;2023-12-14T03:09:15;28.60;;;8.32;;
24517;SDS011;12678;51.336;12.406;2023-12-14T03:11:40;19.85;;;7.75;;
24517;SDS011;12678;51.336;12.406;2023-12-14T03:14:06;24.67;;;8.20;;
24517;SDS011;12678;51.336;12.406;2023-12-14T03:16:31;22.98;;;8.43;;
24517;SDS011;12678;51.336;12.406;2023-12-14T03:18:57;26.80;;;8.63;;
24517;SDS011;12678;51.336;12.406;2023-12-14T03:21:22;21.17;;;8.98;;
24517;SDS011;12678;51.336;12.406;2023-12-14T03:23:48;21.60;;;8.32;;
24517;SDS011;12678;51.336;12.406;2023-12-14T03:26:14;26.20;;;8.35;;
24517;SDS011;12678;51.336;12.406;2023-12-14T03:28:40;25.45;;;7.35;;
24517;SDS011;12678;51.336;12.406;2023-12-14T03:31:06;20.70;;;7.20;;
24517;SDS011;12678;51.336;12.406;2023-12-14T03:33:31;19.77;;;7.13;;
24517;SDS011;12678;51.336;12.406;2023-12-14T03:35:57;22.83;;;6.90;;
24517;SDS011;12678;51.336;12.406;2023-12-14T03:38:23;25.10;;;8.52;;
24517;SDS011;12678;51.336;12.406;2023-12-14T03:40:49;15.57;;;6.88;;
24517;SDS011;12678;51.336;12.406;2023-12-14T03:43:14;19.55;;;8.35;;
24517;SDS011;12678;51.336;12.406;2023-12-14T03:45:40;19.20;;;7.32;;
24517;SDS011;12678;51.336;12.406;2023-12-14T03:48:05;19.10;;;6.53;;
24517;SDS011;12678;51.336;12.406;2023-12-14T03:50:31;17.15;;;7.38;;
24517;SDS011;12678;51.336;12.406;2023-12-14T03:52:57;19.25;;;7.18;;
24517;SDS011;12678;51.336;12.406;2023-12-14T03:55:23;15.98;;;7.40;;
24517;SDS011;12678;51.336;12.406;2023-12-14T03:57:49;15.27;;;7.13;;
24517;SDS011;12678;51.336;12.406;2023-12-14T04:00:15;16.25;;;8.25;;
24517;SDS011;12678;51.336;12.406;2023-12-14T04:02:41;18.98;;;7.60;;
24517;SDS011;12678;51.336;12.406;2023-12-14T04:05:07;18.95;;;8.02;;
24517;SDS011;12678;51.336;12.406;2023-12-14T04:07:34;21.48;;;8.13;;
24517;SDS011;12678;51.336;12.406;2023-12-14T04:10:06;21.70;;;8.20;;
24517;SDS011;12678;51.336;12.406;2023-12-14T04:12:35;25.73;;;9.43;;
24517;SDS011;12678;51.336;12.406;2023-12-14T04:15:01;27.98;;;8.38;;
24517;SDS011;12678;51.336;12.406;2023-12-14T04:17:27;19.75;;;9.07;;
24517;SDS011;12678;51.336;12.406;2023-12-14T04:19:53;23.05;;;9.00;;
24517;SDS011;12678;51.336;12.406;2023-12-14T04:22:19;23.67;;;8.68;;
24517;SDS011;12678;51.336;12.406;2023-12-14T04:24:44;20.25;;;8.93;;
24517;SDS011;12678;51.336;12.406;2023-12-14T04:27:10;29.50;;;9.95;;
24517;SDS011;12678;51.336;12.406;2023-12-14T04:29:35;22.30;;;9.32;;
24517;SDS011;12678;51.336;12.406;2023-12-14T04:32:01;27.70;;;9.73;;
24517;SDS011;12678;51.336;12.406;2023-12-14T04:34:26;24.70;;;9.43;;
24517;SDS011;12678;51.336;12.406;2023-12-14T04:36:52;19.42;;;9.27;;
24517;SDS011;12678;51.336;12.406;2023-12-14T04:39:22;22.30;;;10.05;;
24517;SDS011;12678;51.336;12.406;2023-12-14T04:41:48;28.58;;;10.05;;
24517;SDS011;12678;51.336;12.406;2023-12-14T04:44:13;22.08;;;10.23;;
24517;SDS011;12678;51.336;12.406;2023-12-14T04:46:39;28.88;;;10.10;;
24517;SDS011;12678;51.336;12.406;2023-12-14T04:49:04;27.85;;;9.57;;
24517;SDS011;12678;51.336;12.406;2023-12-14T04:51:30;35.38;;;10.68;;
24517;SDS011;12678;51.336;12.406;2023-12-14T04:53:57;25.75;;;10.55;;
24517;SDS011;12678;51.336;12.406;2023-12-14T04:56:22;22.52;;;9.77;;
24517;SDS011;12678;51.336;12.406;2023-12-14T04:58:48;22.77;;;9.30;;
24517;SDS011;12678;51.336;12.406;2023-12-14T05:01:13;21.42;;;8.75;;
24517;SDS011;12678;51.336;12.406;2023-12-14T05:03:39;15.02;;;7.53;;
24517;SDS011;12678;51.336;12.406;2023-12-14T05:06:05;15.23;;;6.85;;
24517;SDS011;12678;51.336;12.406;2023-12-14T05:08:32;20.92;;;8.45;;
24517;SDS011;12678;51.336;12.406;2023-12-14T05:10:57;18.45;;;7.57;;
24517;SDS011;12678;51.336;12.406;2023-12-14T05:13:23;18.55;;;8.25;;
24517;SDS011;12678;51.336;12.406;2023-12-14T05:15:48;15.50;;;7.72;;
24517;SDS011;12678;51.336;12.406;2023-12-14T05:18:14;18.50;;;7.55;;
24517;SDS011;12678;51.336;12.406;2023-12-14T05:20:39;16.80;;;7.13;;
24517;SDS011;12678;51.336;12.406;2023-12-14T05:23:05;15.32;;;7.03;;
24517;SDS011;12678;51.336;12.406;2023-12-14T05:25:30;14.90;;;7.50;;
24517;SDS011;12678;51.336;12.406;2023-12-14T05:27:56;14.20;;;6.93;;
24517;SDS011;12678;51.336;12.406;2023-12-14T05:30:22;15.27;;;6.75;;
24517;SDS011;12678;51.336;12.406;2023-12-14T05:32:47;12.48;;;5.72;;
24517;SDS011;12678;51.336;12.406;2023-12-14T05:35:13;14.00;;;6.50;;
24517;SDS011;12678;51.336;12.406;2023-12-14T05:37:38;13.98;;;6.00;;
24517;SDS011;12678;51.336;12.406;2023-12-14T05:40:05;11.90;;;5.35;;
24517;SDS011;12678;51.336;12.406;2023-12-14T05:42:31;14.20;;;6.03;;
24517;SDS011;12678;51.336;12.406;2023-12-14T05:44:56;18.40;;;6.45;;
24517;SDS011;12678;51.336;12.406;2023-12-14T05:47:22;14.30;;;6.47;;
24517;SDS011;12678;51.336;12.406;2023-12-14T05:49:48;14.27;;;6.15;;
24517;SDS011;12678;51.336;12.406;2023-12-14T05:52:13;11.35;;;6.40;;
24517;SDS011;12678;51.336;12.406;2023-12-14T05:54:39;13.30;;;6.32;;
24517;SDS011;12678;51.336;12.406;2023-12-14T05:57:04;16.55;;;7.18;;
24517;SDS011;12678;51.336;12.406;2023-12-14T05:59:30;16.50;;;7.22;;
24517;SDS011;12678;51.336;12.406;2023-12-14T06:01:57;15.13;;;8.30;;
24517;SDS011;12678;51.336;12.406;2023-12-14T06:04:23;14.73;;;7.03;;
24517;SDS011;12678;51.336;12.406;2023-12-14T06:06:49;13.48;;;6.55;;
24517;SDS011;12678;51.336;12.406;2023-12-14T06:09:15;12.77;;;7.30;;
24517;SDS011;12678;51.336;12.406;2023-12-14T06:11:42;16.75;;;6.68;;
24517;SDS011;12678;51.336;12.406;2023-12-14T06:14:08;14.85;;;7.53;;
24517;SDS011;12678;51.336;12.406;2023-12-14T06:16:33;15.57;;;6.90;;
24517;SDS011;12678;51.336;12.406;2023-12-14T06:18:59;15.85;;;6.43;;
24517;SDS011;12678;51.336;12.406;2023-12-14T06:21:24;11.90;;;5.95;;
24517;SDS011;12678;51.336;12.406;2023-12-14T06:23:53;17.10;;;6.00;;
24517;SDS011;12678;51.336;12.406;2023-12-14T06:26:19;17.25;;;6.20;;
24517;SDS011;12678;51.336;12.406;2023-12-14T06:28:44;16.85;;;6.57;;
24517;SDS011;12678;51.336;12.406;2023-12-14T06:31:13;15.18;;;6.13;;
24517;SDS011;12678;51.336;12.406;2023-12-14T06:33:41;11.82;;;5.35;;
24517;SDS011;12678;51.336;12.406;2023-12-14T06:36:09;12.18;;;6.20;;
24517;SDS011;12678;51.336;12.406;2023-12-14T06:38:38;13.50;;;6.28;;
24517;SDS011;12678;51.336;12.406;2023-12-14T06:41:05;16.42;;;6.05;;
24517;SDS011;12678;51.336;12.406;2023-12-14T06:43:31;17.02;;;6.95;;
24517;SDS011;12678;51.336;12.406;2023-12-14T06:45:57;14.52;;;6.10;;
24517;SDS011;12678;51.336;12.406;2023-12-14T06:48:22;14.50;;;7.00;;
24517;SDS011;12678;51.336;12.406;2023-12-14T06:50:48;15.27;;;7.10;;
24517;SDS011;12678;51.336;12.406;2023-12-14T06:53:13;15.73;;;7.43;;
24517;SDS011;12678;51.336;12.406;2023-12-14T06:55:40;17.00;;;7.63;;
24517;SDS011;12678;51.336;12.406;2023-12-14T06:58:06;17.20;;;7.90;;
24517;SDS011;12678;51.336;12.406;2023-12-14T07:00:36;21.25;;;7.47;;
24517;SDS011;12678;51.336;12.406;2023-12-14T07:03:02;19.30;;;7.90;;
24517;SDS011;12678;51.336;12.406;2023-12-14T07:05:28;15.55;;;6.75;;
24517;SDS011;12678;51.336;12.406;2023-12-14T07:07:54;20.55;;;7.80;;
24517;SDS011;12678;51.336;12.406;2023-12-14T07:10:21;19.17;;;8.05;;
24517;SDS011;12678;51.336;12.406;2023-12-14T07:12:47;17.58;;;8.30;;
24517;SDS011;12678;51.336;12.406;2023-12-14T07:15:13;20.85;;;8.48;;
24517;SDS011;12678;51.336;12.406;2023-12-14T07:17:38;22.42;;;8.63;;
24517;SDS011;12678;51.336;12.406;2023-12-14T07:20:05;17.75;;;7.70;;
24517;SDS011;12678;51.336;12.406;2023-12-14T07:22:31;20.73;;;8.52;;
24517;SDS011;12678;51.336;12.406;2023-12-14T07:24:57;18.67;;;7.65;;
24517;SDS011;12678;51.336;12.406;2023-12-14T07:27:22;16.92;;;7.65;;
24517;SDS011;12678;51.336;12.406;2023-12-14T07:29:48;18.48;;;7.53;;
24517;SDS011;12678;51.336;12.406;2023-12-14T07:32:13;11.38;;;6.28;;
24517;SDS011;12678;51.336;12.406;2023-12-14T07:34:40;16.20;;;5.93;;
24517;SDS011;12678;51.336;12.406;2023-12-14T07:37:06;11.88;;;5.97;;
24517;SDS011;12678;51.336;12.406;2023-12-14T07:39:31;10.95;;;5.10;;
24517;SDS011;12678;51.336;12.406;2023-12-14T07:41:58;14.65;;;6.97;;
24517;SDS011;12678;51.336;12.406;2023-12-14T07:44:24;20.27;;;8.73;;
24517;SDS011;12678;51.336;12.406;2023-12-14T07:46:50;20.10;;;8.38;;
24517;SDS011;12678;51.336;12.406;2023-12-14T07:49:16;12.82;;;7.90;;
24517;SDS011;12678;51.336;12.406;2023-12-14T07:51:47;17.92;;;8.45;;
24517;SDS011;12678;51.336;12.406;2023-12-14T07:54:13;19.30;;;8.60;;
24517;SDS011;12678;51.336;12.406;2023-12-14T07:56:39;19.90;;;9.07;;
24517;SDS011;12678;51.336;12.406;2023-12-14T07:59:04;22.70;;;8.95;;
24517;SDS011;12678;51.336;12.406;2023-12-14T08:01:32;23.13;;;8.55;;
24517;SDS011;12678;51.336;12.406;2023-12-14T08:03:58;18.95;;;8.38;;
24517;SDS011;12678;51.336;12.406;2023-12-14T08:06:23;15.70;;;7.47;;
24517;SDS011;12678;51.336;12.406;2023-12-14T08:08:49;20.65;;;8.85;;
24517;SDS011;12678;51.336;12.406;2023-12-14T08:11:15;18.10;;;8.00;;
24517;SDS011;12678;51.336;12.406;2023-12-14T08:13:40;16.42;;;7.40;;
24517;SDS011;12678;51.336;12.406;2023-12-14T08:16:07;16.85;;;7.75;;
24517;SDS011;12678;51.336;12.406;2023-12-14T08:18:33;17.58;;;7.32;;
24517;SDS011;12678;51.336;12.406;2023-12-14T08:20:58;15.85;;;7.22;;
24517;SDS011;12678;51.336;12.406;2023-12-14T08:23:24;16.17;;;8.20;;
24517;SDS011;12678;51.336;12.406;2023-12-14T08:25:52;18.98;;;7.50;;
24517;SDS011;12678;51.336;12.406;2023-12-14T08:28:21;18.20;;;8.65;;
24517;SDS011;12678;51.336;12.406;2023-12-14T08:30:50;17.33;;;8.65;;
24517;SDS011;12678;51.336;12.406;2023-12-14T08:33:16;19.95;;;9.30;;
24517;SDS011;12678;51.336;12.406;2023-12-14T08:35:42;14.68;;;7.13;;
24517;SDS011;12678;51.336;12.406;2023-12-14T08:38:07;15.80;;;7.18;;
24517;SDS011;12678;51.336;12.406;2023-12-14T08:40:33;16.23;;;8.00;;
24517;SDS011;12678;51.336;12.406;2023-12-14T08:42:59;21.27;;;7.65;;
24517;SDS011;12678;51.336;12.406;2023-12-14T08:45:24;16.55;;;7.05;;
24517;SDS011;12678;51.336;12.406;2023-12-14T08:47:50;16.98;;;7.70;;
24517;SDS011;12678;51.336;12.406;2023-12-14T08:50:15;17.73;;;7.88;;
24517;SDS011;12678;51.336;12.406;2023-12-14T08:52:41;13.52;;;7.20;;
24517;SDS011;12678;51.336;12.406;2023-12-14T08:55:07;15.55;;;7.13;;
24517;SDS011;12678;51.336;12.406;2023-12-14T08:57:34;15.40;;;7.20;;
24517;SDS011;12678;51.336;12.406;2023-12-14T09:00:01;12.85;;;6.75;;
24517;SDS011;12678;51.336;12.406;2023-12-14T09:02:29;13.60;;;6.55;;
24517;SDS011;12678;51.336;12.406;2023-12-14T09:04:55;14.68;;;6.82;;
24517;SDS011;12678;51.336;12.406;2023-12-14T09:07:21;17.92;;;7.88;;
24517;SDS011;12678;51.336;12.406;2023-12-14T09:09:46;18.90;;;8.57;;
24517;SDS011;12678;51.336;12.406;2023-12-14T09:12:12;19.23;;;8.93;;
24517;SDS011;12678;51.336;12.406;2023-12-14T09:14:37;17.90;;;9.02;;
24517;SDS011;12678;51.336;12.406;2023-12-14T09:17:03;21.73;;;9.02;;
24517;SDS011;12678;51.336;12.406;2023-12-14T09:19:31;23.45;;;10.45;;
24517;SDS011;12678;51.336;12.406;2023-12-14T09:21:57;20.80;;;9.70;;
24517;SDS011;12678;51.336;12.406;2023-12-14T09:24:22;25.75;;;9.30;;
24517;SDS011;12678;51.336;12.406;2023-12-14T09:26:48;19.23;;;8.15;;
24517;SDS011;12678;51.336;12.406;2023-12-14T09:29:14;19.92;;;8.23;;
24517;SDS011;12678;51.336;12.406;2023-12-14T09:31:43;21.55;;;9.27;;
24517;SDS011;12678;51.336;12.406;2023-12-14T09:34:10;16.65;;;8.52;;
24517;SDS011;12678;51.336;12.406;2023-12-14T09:36:36;16.70;;;7.72;;
24517;SDS011;12678;51.336;12.406;2023-12-14T09:39:02;12.63;;;6.35;;
24517;SDS011;12678;51.336;12.406;2023-12-14T09:41:28;12.55;;;6.18;;
24517;SDS011;12678;51.336;12.406;2023-12-14T09:43:54;17.95;;;6.80;;
24517;SDS011;12678;51.336;12.406;2023-12-14T09:46:21;13.20;;;5.65;;
24517;SDS011;12678;51.336;12.406;2023-12-14T09:48:47;10.68;;;5.25;;
24517;SDS011;12678;51.336;12.406;2023-12-14T09:51:15;9.05;;;4.88;;
24517;SDS011;12678;51.336;12.406;2023-12-14T09:53:41;9.15;;;4.70;;
24517;SDS011;12678;51.336;12.406;2023-12-14T09:56:07;9.73;;;5.47;;
24517;SDS011;12678;51.336;12.406;2023-12-14T09:58:33;11.70;;;5.45;;
24517;SDS011;12678;51.336;12.406;2023-12-14T10:00:59;15.00;;;6.72;;
24517;SDS011;12678;51.336;12.406;2023-12-14T10:03:26;11.57;;;5.78;;
24517;SDS011;12678;51.336;12.406;2023-12-14T10:05:54;12.77;;;6.20;;
24517;SDS011;12678;51.336;12.406;2023-12-14T10:08:20;14.52;;;6.57;;
24517;SDS011;12678;51.336;12.406;2023-12-14T10:10:47;13.80;;;6.68;;
24517;SDS011;12678;51.336;12.406;2023-12-14T10:13:14;12.68;;;6.47;;
24517;SDS011;12678;51.336;12.406;2023-12-14T10:15:43;12.75;;;5.60;;
24517;SDS011;12678;51.336;12.406;2023-12-14T10:18:10;12.95;;;5.70;;
24517;SDS011;12678;51.336;12.406;2023-12-14T10:20:36;12.80;;;5.88;;
24517;SDS011;12678;51.336;12.406;2023-12-14T10:23:03;12.38;;;5.30;;
24517;SDS011;12678;51.336;12.406;2023-12-14T10:25:32;9.20;;;4.93;;
24517;SDS011;12678;51.336;12.406;2023-12-14T10:27:58;13.85;;;4.80;;
24517;SDS011;12678;51.336;12.406;2023-12-14T10:30:25;9.65;;;5.07;;
24517;SDS011;12678;51.336;12.406;2023-12-14T10:32:50;11.00;;;5.88;;
24517;SDS011;12678;51.336;12.406;2023-12-14T10:35:16;9.57;;;5.50;;
24517;SDS011;12678;51.336;12.406;2023-12-14T10:37:42;10.57;;;5.47;;
24517;SDS011;12678;51.336;12.406;2023-12-14T10:40:11;9.23;;;5.20;;
24517;SDS011;12678;51.336;12.406;2023-12-14T10:42:39;9.90;;;5.35;;
24517;SDS011;12678;51.336;12.406;2023-12-14T10:45:08;9.02;;;5.18;;
24517;SDS011;12678;51.336;12.406;2023-12-14T10:47:37;9.77;;;4.57;;
24517;SDS011;12678;51.336;12.406;2023-12-14T10:50:04;9.05;;;4.93;;
24517;SDS011;12678;51.336;12.406;2023-12-14T10:52:31;6.95;;;4.03;;
24517;SDS011;12678;51.336;12.406;2023-12-14T10:55:01;8.63;;;4.25;;
24517;SDS011;12678;51.336;12.406;2023-12-14T10:57:31;8.98;;;3.80;;
24517;SDS011;12678;51.336;12.406;2023-12-14T10:59:57;9.10;;;4.43;;
24517;SDS011;12678;51.336;12.406;2023-12-14T11:02:24;8.70;;;4.43;;
24517;SDS011;12678;51.336;12.406;2023-12-14T11:05:02;8.18;;;4.28;;
24517;SDS011;12678;51.336;12.406;2023-12-14T11:10:14;8.80;;;4.10;;
24517;SDS011;12678;51.336;12.406;2023-12-14T11:12:50;10.23;;;4.57;;
24517;SDS011;12678;51.336;12.406;2023-12-14T11:15:24;9.65;;;4.70;;
24517;SDS011;12678;51.336;12.406;2023-12-14T11:20:46;10.25;;;4.85;;
24517;SDS011;12678;51.336;12.406;2023-12-14T11:23:14;11.10;;;5.72;;
24517;SDS011;12678;51.336;12.406;2023-12-14T11:25:50;11.50;;;5.38;;
24517;SDS011;12678;51.336;12.406;2023-12-14T11:28:17;11.02;;;5.88;;
24517;SDS011;12678;51.336;12.406;2023-12-14T11:30:44;12.10;;;4.78;;
24517;SDS011;12678;51.336;12.406;2023-12-14T11:33:11;11.95;;;4.63;;
24517;SDS011;12678;51.336;12.406;2023-12-14T11:35:37;8.10;;;3.42;;
24517;SDS011;12678;51.336;12.406;2023-12-14T11:38:02;8.68;;;3.83;;
24517;SDS011;12678;51.336;12.406;2023-12-14T11:40:35;6.00;;;3.83;;
24517;SDS011;12678;51.336;12.406;2023-12-14T11:43:09;8.23;;;4.28;;
24517;SDS011;12678;51.336;12.406;2023-12-14T11:45:35;8.80;;;3.70;;
24517;SDS011;12678;51.336;12.406;2023-12-14T11:48:03;6.35;;;3.30;;
24517;SDS011;12678;51.336;12.406;2023-12-14T11:50:31;6.18;;;3.50;;
24517;SDS011;12678;51.336;12.406;2023-12-14T11:53:00;5.07;;;3.10;;
24517;SDS011;12678;51.336;12.406;2023-12-14T11:55:28;9.23;;;3.28;;
24517;SDS011;12678;51.336;12.406;2023-12-14T11:57:55;3.50;;;2.72;;
24517;SDS011;12678;51.336;12.406;2023-12-14T12:00:25;5.63;;;3.35;;
24517;SDS011;12678;51.336;12.406;2023-12-14T12:02:52;7.18;;;3.40;;
24517;SDS011;12678;51.336;12.406;2023-12-14T12:05:39;4.88;;;2.63;;
24517;SDS011;12678;51.336;12.406;2023-12-14T12:08:06;5.55;;;3.25;;
24517;SDS011;12678;51.336;12.406;2023-12-14T12:10:32;5.35;;;3.03;;
24517;SDS011;12678;51.336;12.406;2023-12-14T12:12:59;5.75;;;3.45;;
24517;SDS011;12678;51.336;12.406;2023-12-14T12:15:36;6.20;;;3.40;;
24517;SDS011;12678;51.336;12.406;2023-12-14T12:18:02;9.75;;;4.30;;
24517;SDS011;12678;51.336;12.406;2023-12-14T12:20:30;7.57;;;3.85;;
24517;SDS011;12678;51.336;12.406;2023-12-14T12:22:56;6.63;;;3.95;;
24517;SDS011;12678;51.336;12.406;2023-12-14T12:25:21;7.28;;;4.28;;
24517;SDS011;12678;51.336;12.406;2023-12-14T12:27:47;10.52;;;4.28;;
24517;SDS011;12678;51.336;12.406;2023-12-14T12:30:13;9.45;;;4.65;;
24517;SDS011;12678;51.336;12.406;2023-12-14T12:32:40;9.30;;;3.95;;
24517;SDS011;12678;51.336;12.406;2023-12-14T12:35:06;11.65;;;4.88;;
24517;SDS011;12678;51.336;12.406;2023-12-14T12:37:33;8.45;;;4.03;;
24517;SDS011;12678;51.336;12.406;2023-12-14T12:39:58;7.63;;;4.05;;
24517;SDS011;12678;51.336;12.406;2023-12-14T12:42:24;11.45;;;4.38;;
24517;SDS011;12678;51.336;12.406;2023-12-14T12:44:50;10.13;;;4.82;;
24517;SDS011;12678;51.336;12.406;2023-12-14T12:47:16;9.45;;;4.57;;
24517;SDS011;12678;51.336;12.406;2023-12-14T12:49:42;7.90;;;4.55;;
24517;SDS011;12678;51.336;12.406;2023-12-14T12:52:07;10.68;;;5.15;;
24517;SDS011;12678;51.336;12.406;2023-12-14T12:54:34;9.82;;;4.90;;
24517;SDS011;12678;51.336;12.406;2023-12-14T12:56:59;11.25;;;5.60;;
24517;SDS011;12678;51.336;12.406;2023-12-14T12:59:25;9.57;;;4.90;;
24517;SDS011;12678;51.336;12.406;2023-12-14T13:01:50;8.30;;;4.13;;
24517;SDS011;12678;51.336;12.406;2023-12-14T13:04:19;10.27;;;6.05;;
24517;SDS011;12678;51.336;12.406;2023-12-14T13:06:46;7.72;;;4.70;;
24517;SDS011;12678;51.336;12.406;2023-12-14T13:09:13;7.53;;;3.70;;
24517;SDS011;12678;51.336;12.406;2023-12-14T13:11:39;9.13;;;4.40;;
24517;SDS011;12678;51.336;12.406;2023-12-14T13:14:05;8.65;;;4.50;;
24517;SDS011;12678;51.336;12.406;2023-12-14T13:16:33;7.90;;;4.45;;
24517;SDS011;12678;51.336;12.406;2023-12-14T13:18:59;6.75;;;3.72;;
24517;SDS011;12678;51.336;12.406;2023-12-14T13:21:25;10.07;;;3.60;;
24517;SDS011;12678;51.336;12.406;2023-12-14T13:23:50;5.25;;;3.03;;
24517;SDS011;12678;51.336;12.406;2023-12-14T13:26:16;7.80;;;4.13;;
24517;SDS011;12678;51.336;12.406;2023-12-14T13:28:42;5.93;;;3.13;;
24517;SDS011;12678;51.336;12.406;2023-12-14T13:31:07;4.70;;;3.20;;
24517;SDS011;12678;51.336;12.406;2023-12-14T13:33:33;7.28;;;3.22;;
24517;SDS011;12678;51.336;12.406;2023-12-14T13:35:58;8.18;;;3.30;;
24517;SDS011;12678;51.336;12.406;2023-12-14T13:38:24;5.80;;;3.60;;
24517;SDS011;12678;51.336;12.406;2023-12-14T13:40:50;7.88;;;3.60;;
24517;SDS011;12678;51.336;12.406;2023-12-14T13:43:15;6.15;;;3.47;;
24517;SDS011;12678;51.336;12.406;2023-12-14T13:45:41;7.82;;;3.50;;
24517;SDS011;12678;51.336;12.406;2023-12-14T13:48:09;9.52;;;3.00;;
24517;SDS011;12678;51.336;12.406;2023-12-14T13:50:35;5.50;;;3.28;;
24517;SDS011;12678;51.336;12.406;2023-12-14T13:53:00;8.40;;;3.92;;
24517;SDS011;12678;51.336;12.406;2023-12-14T13:55:27;6.85;;;3.33;;
24517;SDS011;12678;51.336;12.406;2023-12-14T13:57:52;5.45;;;3.20;;
24517;SDS011;12678;51.336;12.406;2023-12-14T14:00:18;5.80;;;3.38;;
24517;SDS011;12678;51.336;12.406;2023-12-14T14:02:44;9.75;;;3.92;;
24517;SDS011;12678;51.336;12.406;2023-12-14T14:05:09;10.95;;;4.30;;
24517;SDS011;12678;51.336;12.406;2023-12-14T14:07:35;7.13;;;4.07;;
24517;SDS011;12678;51.336;12.406;2023-12-14T14:10:01;8.23;;;3.70;;
24517;SDS011;12678;51.336;12.406;2023-12-14T14:12:27;10.68;;;4.05;;
24517;SDS011;12678;51.336;12.406;2023-12-14T14:14:52;8.23;;;4.07;;
24517;SDS011;12678;51.336;12.406;2023-12-14T14:17:18;8.63;;;3.50;;
24517;SDS011;12678;51.336;12.406;2023-12-14T14:19:43;7.20;;;4.13;;
24517;SDS011;12678;51.336;12.406;2023-12-14T14:22:09;7.60;;;4.38;;